Latest Coastal Weather Observations for Rhyll

IDV60701

Issued at 3:02 pm EST Tuesday 17 September 2019 (issued every 10 minutes, with the page automatically refreshed every 10 minutes)

About coastal observations | Map of coastal stations | Coastal observations for VIC | Marine services | Other Formats
Station Details ID: 086373 Name: RHYLL Lat: -38.46 Lon: 145.31 Height: 13.4 m
Data from the previous 72 hours. | See also: Recent months at Rhyll
Date/Time
EST
Wind Sea
Height
m
Swell Vis
km
Cloud Weather Temp
°C
Press
hPa
Rain since
9am
mm
Dir  Spd
kts
Gust
kts
Height
m
Period
s
Dir
17/03:00pm SSE 9 13 - - - - - - - 11.9 1027.9 0.0
17/02:30pm SSE 8 11 - - - - - - - 12.0 1028.0 0.0
17/02:00pm SSE 9 13 - - - - - - - 12.3 1028.2 0.0
17/01:30pm S 8 12 - - - - - - - 12.7 1028.3 0.0
17/01:00pm SSE 9 13 - - - - - - - 12.6 1028.4 0.0
17/12:30pm SSE 8 12 - - - - - - - 12.7 1028.7 0.0
17/12:00pm SSE 7 10 - - - - - - - 12.9 1029.0 0.0
17/11:30am SSE 8 12 - - - - - - - 13.0 1029.1 0.0
17/11:00am SSE 8 11 - - - - - - - 12.6 1029.0 0.0
17/10:30am SSE 8 13 - - - - - - - 12.7 1028.9 0.0
17/10:00am SSE 8 12 - - - - - - - 12.6 1028.9 0.0
17/09:30am SSE 7 10 - - - - - - - 12.4 1028.8 0.0
17/09:00am SE 7 10 - - - - - - - 12.2 1028.7 0.0
17/08:30am SE 4 5 - - - - - - - 12.2 1028.7 0.0
17/08:00am SE 4 6 - - - - - - - 11.2 1028.5 0.0
17/07:30am ESE 5 7 - - - - - - - 10.1 1028.1 0.0
17/07:00am ESE 8 9 - - - - - - - 8.7 1028.0 0.0
17/06:30am ESE 7 8 - - - - - - - 7.8 1027.5 0.0
17/06:00am ESE 8 9 - - - - - - - 8.1 1027.3 0.0
17/05:30am SSE 8 11 - - - - - - - 8.6 1027.0 0.0
17/05:00am SSE 8 11 - - - - - - - 8.8 1026.7 0.0
17/04:30am SSE 9 13 - - - - - - - 9.0 1026.6 0.0
17/04:00am SSE 8 12 - - - - - - - 8.9 1026.4 0.0
17/03:30am SSE 8 11 - - - - - - - 8.7 1026.3 0.0
17/03:00am SSE 9 14 - - - - - - - 8.5 1026.3 0.0
17/02:30am SSE 10 14 - - - - - - - 8.9 1026.3 0.0
17/02:00am SSE 8 12 - - - - - - - 8.6 1026.4 0.0
17/01:30am SSE 9 14 - - - - - - - 8.8 1026.4 0.0
17/01:00am S 9 12 - - - - - - - 8.7 1026.7 0.0
17/12:30am S 10 14 - - - - - - - 8.8 1026.8 0.0
17/12:00am S 8 11 - - - - - - - 9.1 1026.7 0.0
 
Date/Time
EST
Wind Sea
Height
m
Swell Vis
km
Cloud Weather Temp
°C
Press
hPa
Rain since
9am
mm
Dir  Spd
kts
Gust
kts
Height
m
Period
s
Dir
16/11:30pm S 7 10 - - - - - - - 8.7 1026.4 0.0
16/11:00pm S 9 13 - - - - - - - 8.8 1026.6 0.0
16/10:30pm SSW 10 16 - - - - - - - 8.8 1026.5 0.0
16/10:00pm S 8 15 - - - - - - - 8.8 1026.3 0.0
16/09:30pm SSW 9 16 - - - - - - - 8.9 1026.1 0.0
16/09:00pm S 9 14 - - - - - - - 8.7 1025.8 0.0
16/08:30pm S 10 17 - - - - - - - 8.9 1025.7 0.0
16/08:00pm S 8 13 - - - - - - - 8.9 1025.6 0.0
16/07:30pm SSW 9 16 - - - - - - - 9.0 1025.3 0.0
16/07:00pm S 8 14 - - - - - - - 9.1 1025.0 0.0
16/06:30pm SSW 9 15 - - - - - - - 9.0 1024.6 0.0
16/06:00pm SSW 10 16 - - - - - - - 9.3 1024.1 0.0
16/05:30pm SSW 10 17 - - - - - - - 9.5 1023.8 0.0
16/05:00pm S 9 16 - - - - - - - 10.4 1023.4 0.0
16/04:30pm SSW 8 16 - - - - - - - 11.3 1023.2 0.0
16/04:00pm SSW 10 19 - - - - - - - 9.6 1022.9 0.0
16/03:30pm SSW 10 17 - - - - - - - 10.3 1022.6 0.0
16/03:00pm SW 8 13 - - - - - - - 11.9 1022.5 0.0
16/02:30pm SSW 9 16 - - - - - - - 11.9 1022.0 0.0
16/02:00pm SSW 9 16 - - - - - - - 11.8 1022.0 0.0
16/01:30pm SSW 10 19 - - - - - - - 11.8 1021.8 0.0
16/01:00pm SSW 12 21 - - - - - - - 11.3 1021.3 0.0
16/12:30pm SSW 11 18 - - - - - - - 11.5 1021.2 0.0
16/12:00pm SSW 11 19 - - - - - - - 11.8 1021.2 0.0
16/11:30am SSW 11 18 - - - - - - - 12.0 1021.0 0.0
16/11:00am SSW 11 18 - - - - - - - 11.8 1021.0 0.0
16/10:30am SSW 10 18 - - - - - - - 11.4 1020.6 0.0
16/10:00am SW 10 16 - - - - - - - 11.8 1020.7 0.0
16/09:30am SW 9 15 - - - - - - - 11.3 1020.4 0.0
16/09:00am SSW 10 19 - - - - - - - 10.5 1019.9 15.2
16/08:30am SSW 9 16 - - - - - - - 11.0 1019.7 15.2
16/08:00am SW 10 17 - - - - - - - 10.9 1019.4 15.2
16/07:30am SW 8 13 - - - - - - - 11.0 1019.0 15.2
16/07:00am SW 8 12 - - - - - - - 10.3 1018.7 15.2
16/06:30am SW 7 12 - - - - - - - 10.1 1018.4 15.2
16/06:00am SW 7 12 - - - - - - - 10.2 1018.1 15.2
16/05:30am WSW 5 9 - - - - - - - 9.9 1017.5 15.2
16/05:00am WSW 8 15 - - - - - - - 10.6 1017.2 15.2
16/04:30am WSW 4 8 - - - - - - - 10.9 1017.0 15.0
16/04:00am W 8 17 - - - - - - - 11.0 1016.7 15.0
16/03:30am WSW 6 11 - - - - - - - 10.9 1016.1 15.0
16/03:00am W 7 15 - - - - - - Recent precip. 10.7 1015.8 15.0
16/02:30am WSW 8 16 - - - - - - - 10.5 1015.8 15.0
16/02:00am WSW 7 12 - - - - - - - 10.5 1015.8 14.8
16/01:30am WSW 8 14 - - - - - - - 10.4 1015.7 14.8
16/01:00am WSW 7 13 - - - - - - - 10.7 1015.4 14.8
16/12:30am WSW 5 11 - - - - - - - 10.2 1015.0 14.8
16/12:00am WSW 7 13 - - - - - - Rain 10.0 1015.3 14.0
 
Date/Time
EST
Wind Sea
Height
m
Swell Vis
km
Cloud Weather Temp
°C
Press
hPa
Rain since
9am
mm
Dir  Spd
kts
Gust
kts
Height
m
Period
s
Dir
15/11:30pm WSW 5 9 - - - - - - - 10.9 1014.8 12.4
15/11:00pm WSW 7 11 - - - - - - - 10.7 1014.9 10.8
15/10:30pm SW 8 13 - - - - - - - 11.7 1014.2 9.8
15/10:00pm NW 5 12 - - - - - - - 14.0 1014.6 7.4
15/09:30pm NW 6 11 - - - - - - - 13.9 1014.1 6.2
15/09:00pm NNW 9 15 - - - - - - Recent precip. 13.8 1014.0 6.2
15/08:30pm NNW 11 19 - - - - - - - 13.9 1014.2 6.2
15/08:27pm NNW 13 19 - - - - - - - 13.9 1014.0 6.2
15/08:00pm NNW 20 25 - - - - - - - 14.2 1014.1 6.0
15/07:52pm NNW 19 25 - - - - - - - 14.2 1014.1 6.0
15/07:30pm NW 8 14 - - - - - - - 14.3 1014.3 5.6
15/07:00pm WNW 7 13 - - - - - - - 14.5 1015.5 5.0
15/06:30pm NNW 7 13 - - - - - - - 13.9 1014.9 4.0
15/06:00pm NNW 17 22 - - - - - - Rain 13.9 1014.3 3.8
15/05:30pm NNW 13 24 - - - - - - - 14.4 1013.4 3.0
15/05:00pm NNW 15 19 - - - - - - - 14.6 1012.9 3.0
15/04:59pm NNW 15 19 - - - - - - - 14.6 1012.8 3.0
15/04:30pm WNW 6 12 - - - - - - - 14.6 1014.8 2.4
15/04:00pm WNW 5 10 - - - - - - - 14.8 1014.8 1.0
15/03:30pm NNW 9 12 - - - - - - - 15.1 1013.2 0.2
15/03:00pm NNW 11 15 - - - - - - - 15.2 1012.8 0.2
15/02:30pm NNW 12 17 - - - - - - - 15.6 1013.0 0.2
15/02:00pm NNW 13 17 - - - - - - - 16.0 1013.5 0.2
15/01:30pm NW 6 12 - - - - - - - 16.3 1014.9 0.0
15/01:00pm NNW 11 19 - - - - - - - 16.4 1014.5 0.0
15/12:30pm NNW 14 19 - - - - - - - 15.9 1015.0 0.0
15/12:00pm NNW 16 22 - - - - - - - 16.1 1015.4 0.0
15/11:30am NNW 11 18 - - - - - - - 16.2 1015.7 0.0
15/11:00am NNW 15 22 - - - - - - - 16.7 1015.6 0.0
15/10:30am NNW 14 19 - - - - - - - 16.0 1015.9 0.0
15/10:00am NNW 15 19 - - - - - - - 15.7 1016.6 0.0
15/09:30am NNW 9 13 - - - - - - - 14.8 1017.0 0.0
15/09:00am NNW 14 21 - - - - - - - 14.4 1017.2 1.4
15/08:30am NNW 15 21 - - - - - - - 14.6 1017.4 1.4
15/08:00am NNW 12 18 - - - - - - - 14.2 1017.2 1.4
15/07:30am NNW 9 14 - - - - - - - 13.6 1017.6 1.4
15/07:00am NNW 12 17 - - - - - - - 13.4 1017.3 1.4
15/06:30am NNW 17 22 - - - - - - - 13.5 1017.1 1.4
15/06:00am N 16 21 - - - - - - Recent precip. 13.3 1017.1 1.4
15/05:30am N 16 20 - - - - - - - 13.4 1017.3 1.4
15/05:00am N 13 16 - - - - - - - 13.8 1017.2 1.2
15/04:30am N 7 11 - - - - - - - 13.5 1017.5 1.0
15/04:00am NNW 11 14 - - - - - - - 13.4 1017.8 0.8
15/03:30am NNW 8 12 - - - - - - - 13.4 1017.9 0.6
15/03:00am NNW 10 14 - - - - - - - 13.5 1018.0 0.4
15/02:30am NNW 12 16 - - - - - - - 13.6 1018.2 0.4
15/02:00am NNW 9 13 - - - - - - - 13.4 1018.5 0.4
15/01:30am NNW 12 15 - - - - - - - 13.6 1018.5 0.4
15/01:00am NNW 8 12 - - - - - - - 13.6 1019.1 0.4
15/12:30am N 8 10 - - - - - - - 13.4 1019.5 0.2
15/12:00am NNW 7 10 - - - - - - Rain 13.6 1019.8 0.2
 
Date/Time
EST
Wind Sea
Height
m
Swell Vis
km
Cloud Weather Temp
°C
Press
hPa
Rain since
9am
mm
Dir  Spd
kts
Gust
kts
Height
m
Period
s
Dir
14/11:30pm NNW 8 10 - - - - - - - 14.3 1020.2 0.0
14/11:00pm NNW 1 3 - - - - - - - 13.7 1020.4 0.0
14/10:30pm WNW 1 3 - - - - - - - 14.1 1020.8 0.0
14/10:00pm NW 3 5 - - - - - - - 14.3 1020.8 0.0
14/09:30pm NW 4 5 - - - - - - - 13.4 1020.6 0.0
14/09:00pm NNW 7 8 - - - - - - - 12.7 1020.3 0.0
14/08:30pm NNW 3 5 - - - - - - - 12.4 1020.9 0.0
14/08:00pm N 3 4 - - - - - - - 12.2 1020.8 0.0
14/07:30pm N 3 5 - - - - - - - 12.6 1021.0 0.0
14/07:00pm N 2 4 - - - - - - - 13.4 1021.0 0.0
14/06:30pm NNW 2 5 - - - - - - - 13.0 1021.3 0.0
14/06:00pm NNW 4 6 - - - - - - - 13.9 1021.3 0.0
14/05:30pm N 5 6 - - - - - - - 14.3 1021.5 0.0
14/05:00pm NNW 3 4 - - - - - - - 14.4 1021.9 0.0
14/04:30pm CALM 0 1 - - - - - - - 14.0 1021.7 0.0
14/04:00pm N 3 4 - - - - - - - 14.2 1022.6 0.0
14/03:30pm NW 3 5 - - - - - - - 15.2 1023.0 0.0

Other formats

Comma delimited format used in spreadsheet applications
http://www.bom.gov.au/fwo/IDV60701/IDV60701.94892.axf

JavaScript Object Notation format (JSON) in row-major order
http://www.bom.gov.au/fwo/IDV60701/IDV60701.94892.json

Data quality

Most of these data are generated automatically and are frequently updated. Quality checks on data are not normally performed. It is possible for incorrect values to appear. Refer to information at About Latest Weather Observations and please check the disclaimer before using these data.